Time;durP1;ratioP1;P1;durP2;ratioP2;P2;SDS_P1;SDS_P2;PMS_P1;PMS_P2;Temp;Humidity;BMP_temperature;BMP_pressure;BME280_temperature;BME280_humidity;BME280_pressure;Samples;Min_cycle;Max_cycle;Signal;HPM_P1;HPM_P2
2022/10/07 00:00:48;;;;;;;8.65;2.08;;;;;;;7.91;80.51;100758.92;1753188;81;20916;-61
2022/10/07 00:03:17;;;;;;;10.70;2.20;;;;;;;7.89;80.52;100764.59;1757871;81;21046;-60
2022/10/07 00:05:44;;;;;;;6.75;1.80;;;;;;;7.88;80.57;100763.73;1752602;79;21045;-59
2022/10/07 00:08:12;;;;;;;10.53;3.33;;;;;;;7.87;80.43;100765.05;1758227;81;21034;-60
2022/10/07 00:10:40;;;;;;;7.65;2.08;;;;;;;7.82;80.49;100762.11;1753680;80;20966;-60
2022/10/07 00:13:10;;;;;;;7.40;2.08;;;;;;;7.77;80.45;100753.54;1753003;81;20923;-59
2022/10/07 00:15:37;;;;;;;4.58;1.90;;;;;;;7.71;80.50;100759.31;1755010;81;21507;-59
2022/10/07 00:18:04;;;;;;;6.35;1.50;;;;;;;7.65;80.62;100753.78;1758370;80;21434;-60
2022/10/07 00:20:37;;;;;;;10.20;2.03;;;;;;;7.59;80.65;100748.70;1751825;81;20986;-60
2022/10/07 00:23:04;;;;;;;7.42;1.95;;;;;;;7.56;80.76;100748.73;1754157;81;21507;-60
2022/10/07 00:25:31;;;;;;;7.00;2.15;;;;;;;7.53;80.83;100743.59;1749888;81;21052;-60
2022/10/07 00:27:57;;;;;;;9.13;2.33;;;;;;;7.49;81.00;100751.05;1723911;81;20942;-60
2022/10/07 00:30:24;;;;;;;8.70;1.90;;;;;;;7.47;80.98;100748.91;1757680;81;20977;-60
2022/10/07 00:32:51;;;;;;;9.48;1.87;;;;;;;7.45;81.03;100751.97;1762320;80;21510;-60
2022/10/07 00:35:18;;;;;;;4.85;2.00;;;;;;;7.42;81.08;100748.98;1763604;81;21436;-60
2022/10/07 00:37:45;;;;;;;10.93;2.10;;;;;;;7.37;81.08;100746.48;1734427;82;20911;-60
2022/10/07 00:40:12;;;;;;;6.33;1.98;;;;;;;7.35;81.18;100746.95;1764412;81;21186;-59
2022/10/07 00:42:39;;;;;;;;;;;;;;;7.33;81.14;100746.11;1732720;81;21017;-60
2022/10/07 00:45:13;;;;;;;5.85;1.80;;;;;;;7.32;81.36;100743.11;1762604;80;20102;-60
2022/10/07 00:47:43;;;;;;;5.97;2.02;;;;;;;7.30;81.28;100744.86;1763127;80;20950;-60
2022/10/07 00:50:20;;;;;;;11.83;2.40;;;;;;;7.32;81.23;100748.30;1762529;80;21028;-60
2022/10/07 00:52:53;;;;;;;14.20;2.12;;;;;;;7.32;81.22;100740.51;1761054;81;23231;-59
2022/10/07 00:55:23;;;;;;;9.05;3.12;;;;;;;7.34;81.29;100735.30;1727357;82;20948;-60
2022/10/07 00:57:53;;;;;;;11.12;2.62;;;;;;;7.32;81.31;100731.86;1771780;80;21420;-60
2022/10/07 01:00:23;;;;;;;7.37;2.12;;;;;;;7.28;81.25;100723.27;1771504;80;21425;-60
2022/10/07 01:02:51;;;;;;;9.45;2.72;;;;;;;7.26;81.27;100727.63;1764678;80;21075;-61
2022/10/07 01:05:19;;;;;;;12.47;2.72;;;;;;;7.25;81.37;100725.90;1763962;80;21088;-60
2022/10/07 01:07:48;;;;;;;7.60;2.05;;;;;;;7.26;81.60;100722.44;1729276;81;20956;-60
2022/10/07 01:10:18;;;;;;;8.23;1.98;;;;;;;7.28;81.69;100718.08;1771126;80;21585;-60
2022/10/07 01:13:14;;;;;;;10.13;2.40;;;;;;;7.26;81.52;100721.14;1761208;80;20995;-61
2022/10/07 01:16:05;;;;;;;8.78;1.92;;;;;;;7.24;81.53;100720.75;1767440;80;20879;-61
2022/10/07 01:18:40;;;;;;;7.37;1.95;;;;;;;7.23;81.66;100718.59;1764804;81;21929;-59
2022/10/07 01:21:15;;;;;;;6.97;1.80;;;;;;;7.21;81.68;100713.86;1756941;80;20935;-60
2022/10/07 01:23:58;;;;;;;15.30;1.75;;;;;;;7.19;81.63;100720.81;1767814;80;20907;-59
2022/10/07 01:26:47;;;;;;;5.67;2.25;;;;;;;7.17;81.73;100723.45;1765514;80;21496;-60
2022/10/07 01:29:25;;;;;;;7.83;1.90;;;;;;;7.16;81.76;100711.78;1728966;81;20951;-60
2022/10/07 01:32:12;;;;;;;13.90;3.55;;;;;;;7.15;81.78;100717.88;1766912;80;21199;-60
2022/10/07 01:34:41;;;;;;;7.50;2.00;;;;;;;7.11;81.87;100709.70;1766499;80;20949;-60
2022/10/07 01:37:12;;;;;;;11.50;3.02;;;;;;;7.10;81.91;100711.89;1763783;80;21510;-60
2022/10/07 01:39:46;;;;;;;10.85;2.98;;;;;;;7.10;82.05;100710.59;1758160;80;20942;-60
2022/10/07 01:42:13;;;;;;;11.53;2.83;;;;;;;7.11;82.10;100709.70;1757841;80;20934;-60
2022/10/07 01:44:40;;;;;;;;;;;;;;;7.10;82.02;100706.70;1756018;80;21049;-60
2022/10/07 01:47:07;;;;;;;5.53;1.62;;;;;;;7.09;82.14;100705.00;1758495;80;20089;-60
2022/10/07 01:49:33;;;;;;;7.60;2.20;;;;;;;7.06;82.01;100708.95;1740379;81;20902;-60
2022/10/07 01:52:34;;;;;;;9.57;1.73;;;;;;;7.01;82.00;100703.82;1739743;81;20986;-59
2022/10/07 01:55:29;;;;;;;11.33;2.27;;;;;;;6.99;82.10;100707.33;1736003;81;20974;-61
2022/10/07 01:58:13;;;;;;;7.92;2.55;;;;;;;6.94;82.12;100710.84;1738063;81;21215;-60
2022/10/07 02:00:45;;;;;;;6.62;1.82;;;;;;;6.90;82.14;100710.48;1798914;78;21004;-60
2022/10/07 02:03:17;;;;;;;6.67;1.67;;;;;;;6.88;82.49;100710.94;1801088;78;20969;-59
2022/10/07 02:06:11;;;;;;;8.50;2.05;;;;;;;6.88;82.48;100707.05;1794564;78;22712;-59
2022/10/07 02:08:48;;;;;;;8.28;1.80;;;;;;;6.90;82.45;100705.74;1791609;78;20910;-60
2022/10/07 02:11:24;;;;;;;5.83;2.07;;;;;;;6.84;82.38;100697.61;1797818;78;20966;-60
2022/10/07 02:14:11;;;;;;;6.40;2.10;;;;;;;6.83;82.40;100699.77;1802853;78;21065;-60
2022/10/07 02:16:52;;;;;;;5.60;2.17;;;;;;;6.79;82.55;100692.93;1798207;78;21512;-60
2022/10/07 02:19:26;;;;;;;6.25;2.02;;;;;;;6.78;82.57;100694.23;1799277;78;20959;-60
2022/10/07 02:21:56;;;;;;;5.20;1.85;;;;;;;6.73;82.51;100696.48;1799214;78;20928;-60
2022/10/07 02:24:26;;;;;;;9.10;2.37;;;;;;;6.68;82.44;100687.05;1795716;78;23469;-60
2022/10/07 02:26:54;;;;;;;7.33;2.20;;;;;;;6.62;82.58;100697.53;1802355;78;21540;-60
2022/10/07 02:29:23;;;;;;;5.85;2.05;;;;;;;6.58;82.69;100693.25;1797396;78;20912;-60
2022/10/07 02:31:52;;;;;;;5.58;1.90;;;;;;;6.55;82.67;100692.01;1802402;78;21494;-59
2022/10/07 02:34:22;;;;;;;7.62;2.55;;;;;;;6.50;82.65;100689.06;1810354;78;21076;-60
2022/10/07 02:37:00;;;;;;;7.60;2.42;;;;;;;6.48;82.68;100689.52;1808414;77;21569;-60
2022/10/07 02:39:28;;;;;;;10.88;2.60;;;;;;;6.47;82.80;100687.81;1809436;78;20987;-59
2022/10/07 02:42:27;;;;;;;6.47;1.72;;;;;;;6.48;82.86;100693.41;1808135;78;21013;-62
2022/10/07 02:45:15;;;;;;;7.22;1.77;;;;;;;6.44;82.86;100694.34;1809204;78;21161;-60
2022/10/07 02:47:52;;;;;;;7.67;2.33;;;;;;;6.43;83.06;100688.72;1811057;78;20895;-60
2022/10/07 02:50:22;;;;;;;;;;;;;;;6.41;83.00;100689.20;1819633;78;21040;-60
2022/10/07 02:52:54;;;;;;;7.17;2.17;;;;;;;6.41;83.42;100686.61;1818614;78;20100;-60
2022/10/07 02:55:25;;;;;;;7.03;2.27;;;;;;;6.40;83.33;100687.47;1811450;78;20922;-60
2022/10/07 02:57:56;;;;;;;4.75;1.95;;;;;;;6.39;83.28;100681.88;1813664;77;20906;-60
2022/10/07 03:00:23;;;;;;;13.43;2.87;;;;;;;6.40;83.41;100680.98;1816486;78;20959;-60
2022/10/07 03:02:57;;;;;;;6.50;2.17;;;;;;;6.41;83.44;100678.83;1813750;78;21127;-59
2022/10/07 03:05:25;;;;;;;8.05;2.08;;;;;;;6.41;83.39;100684.02;1812835;78;20963;-61
2022/10/07 03:08:04;;;;;;;9.40;2.27;;;;;;;6.41;83.43;100680.54;1810144;78;20920;-61
2022/10/07 03:10:31;;;;;;;11.78;2.27;;;;;;;6.39;83.54;100683.17;1775704;78;20936;-60
2022/10/07 03:12:58;;;;;;;10.20;2.02;;;;;;;6.40;83.68;100678.39;1815258;78;26903;-59
2022/10/07 03:15:26;;;;;;;10.83;2.07;;;;;;;6.43;83.80;100682.23;1817010;78;21068;-60
2022/10/07 03:17:52;;;;;;;10.35;3.40;;;;;;;6.43;83.66;100674.89;1813049;78;20918;-60
2022/10/07 03:20:19;;;;;;;4.92;2.17;;;;;;;6.40;83.61;100682.28;1804136;78;21486;-60
2022/10/07 03:22:45;;;;;;;9.65;1.82;;;;;;;6.39;83.64;100683.17;1814135;78;20876;-60
2022/10/07 03:25:13;;;;;;;14.53;2.27;;;;;;;6.39;83.70;100675.84;1813024;78;20953;-60
2022/10/07 03:27:44;;;;;;;10.18;2.42;;;;;;;6.38;83.67;100667.17;1782638;78;21037;-60
2022/10/07 03:30:12;;;;;;;4.90;1.75;;;;;;;6.36;83.82;100665.06;1814730;78;20922;-60
2022/10/07 03:32:40;;;;;;;7.10;1.75;;;;;;;6.37;83.92;100670.66;1780475;78;20920;-60
2022/10/07 03:35:07;;;;;;;;;;;;;;;6.36;84.04;100666.36;1816886;78;20963;-60
2022/10/07 03:37:34;;;;;;;5.87;1.98;;;;;;;6.35;84.04;100673.70;1817857;78;20441;-60
2022/10/07 03:40:00;;;;;;;9.05;2.27;;;;;;;6.32;84.11;100667.27;1785218;78;21049;-60
2022/10/07 03:42:27;;;;;;;9.25;2.45;;;;;;;6.32;84.07;100665.97;1765726;80;20949;-60
2022/10/07 03:44:53;;;;;;;10.70;2.52;;;;;;;6.29;84.09;100673.80;1761204;81;20977;-60
2022/10/07 03:47:20;;;;;;;8.05;2.15;;;;;;;6.28;84.16;100666.91;1756470;80;20993;-60
2022/10/07 03:49:47;;;;;;;11.43;2.47;;;;;;;6.28;84.23;100670.80;1763210;80;21036;-60
2022/10/07 03:52:14;;;;;;;10.03;2.43;;;;;;;6.26;84.15;100668.66;1761560;81;21054;-60
2022/10/07 03:54:40;;;;;;;8.05;2.67;;;;;;;6.24;84.23;100676.45;1767162;81;21480;-60
2022/10/07 03:57:48;;;;;;;12.73;4.90;;;;;;;6.25;84.31;100669.55;1758980;81;20918;-60
2022/10/07 03:59:35;;;;;;;15.95;5.92;;;;;;;6.23;84.19;100679.08;1756312;79;20863;-60
2022/10/07 04:02:02;;;;;;;19.87;5.83;;;;;;;6.19;84.14;100673.50;1756320;81;20989;-60
2022/10/07 04:04:29;;;;;;;13.57;4.93;;;;;;;6.14;84.16;100676.63;1761989;80;21230;-60
2022/10/07 04:06:56;;;;;;;14.07;3.75;;;;;;;6.11;84.18;100677.97;1759818;80;20874;-60
2022/10/07 04:09:23;;;;;;;11.57;2.70;;;;;;;6.07;84.18;100667.20;1763044;81;20906;-61
2022/10/07 04:11:50;;;;;;;12.00;3.00;;;;;;;6.02;84.22;100670.73;1758660;81;20943;-59
2022/10/07 04:14:16;;;;;;;7.57;2.67;;;;;;;5.99;84.29;100670.77;1762047;81;20962;-60
2022/10/07 04:16:43;;;;;;;15.40;3.03;;;;;;;5.95;84.45;100666.48;1766641;80;21027;-59
2022/10/07 04:19:10;;;;;;;59.90;22.63;;;;;;;5.92;84.45;100661.31;1759489;80;21124;-60
2022/10/07 04:21:36;;;;;;;229.45;102.67;;;;;;;5.86;84.46;100662.70;1767175;81;20921;-60
2022/10/07 04:24:03;;;;;;;64.10;26.07;;;;;;;5.79;84.44;100664.94;1776752;80;20926;-60
2022/10/07 04:26:30;;;;;;;98.20;45.37;;;;;;;5.74;84.56;100661.53;1763551;81;20985;-60
2022/10/07 04:28:58;;;;;;;612.67;387.13;;;;;;;5.67;84.50;100668.98;1777848;80;21070;-60
2022/10/07 04:31:25;;;;;;;186.65;97.55;;;;;;;5.64;84.56;100657.36;1764808;81;20926;-60
2022/10/07 04:33:52;;;;;;;54.90;24.73;;;;;;;5.63;84.64;100660.81;1761153;80;21015;-59
2022/10/07 04:36:19;;;;;;;30.48;12.45;;;;;;;5.61;84.62;100658.26;1753936;81;21604;-60
2022/10/07 04:38:49;;;;;;;22.95;8.13;;;;;;;5.57;84.62;100654.86;1754163;81;21001;-59
2022/10/07 04:41:16;;;;;;;9.70;3.15;;;;;;;5.55;84.88;100659.19;1758460;81;21084;-60
2022/10/07 04:43:42;;;;;;;9.83;3.00;;;;;;;5.56;85.11;100657.00;1762157;80;21071;-60
2022/10/07 04:46:14;;;;;;;9.20;2.73;;;;;;;5.60;85.49;100663.88;1757569;81;21036;-60
2022/10/07 04:48:44;;;;;;;9.38;3.05;;;;;;;5.65;85.23;100666.84;1760708;81;21574;-61
2022/10/07 04:51:11;;;;;;;7.80;2.95;;;;;;;5.64;85.17;100659.95;1759232;81;21014;-60
2022/10/07 04:53:39;;;;;;;10.08;2.87;;;;;;;5.65;85.16;100664.25;1754031;81;22237;-60
2022/10/07 04:56:07;;;;;;;8.38;2.60;;;;;;;5.66;85.21;100655.59;1758062;81;21445;-60
2022/10/07 04:58:35;;;;;;;9.83;2.80;;;;;;;5.70;85.38;100657.28;1754358;81;20938;-60
2022/10/07 05:01:05;;;;;;;;;;;;;;;5.74;85.34;100658.95;1753742;81;20993;-60
2022/10/07 05:03:35;;;;;;;7.37;2.52;;;;;;;5.72;85.32;100663.31;1756134;81;20119;-59
2022/10/07 05:06:05;;;;;;;7.53;2.72;;;;;;;5.69;85.67;100658.17;1750166;81;21241;-61
2022/10/07 05:08:32;;;;;;;11.00;2.77;;;;;;;5.76;85.48;100657.20;1764524;81;20942;-60
2022/10/07 05:11:01;;;;;;;10.72;2.95;;;;;;;5.78;85.54;100655.45;1758666;81;20886;-60
2022/10/07 05:13:28;;;;;;;15.55;3.17;;;;;;;5.81;85.59;100648.94;1762238;81;21453;-60
2022/10/07 05:15:57;;;;;;;9.80;2.93;;;;;;;5.87;85.64;100653.18;1761122;81;20903;-60
2022/10/07 05:18:26;;;;;;;17.10;4.60;;;;;;;5.97;85.89;100649.19;1756309;79;21618;-61
2022/10/07 05:20:54;;;;;;;10.20;2.75;;;;;;;6.22;86.06;100644.96;1756010;81;21529;-60
2022/10/07 05:23:23;;;;;;;8.95;3.77;;;;;;;6.60;86.20;100644.80;1754031;81;20922;-60
2022/10/07 05:26:00;;;;;;;6.80;3.00;;;;;;;7.00;86.01;100641.52;1761701;79;21023;-61
2022/10/07 05:28:27;;;;;;;8.43;2.90;;;;;;;7.42;85.78;100642.89;1753493;79;20926;-61
2022/10/07 05:31:10;;;;;;;6.85;2.40;;;;;;;7.89;85.71;100643.22;1756880;79;21069;-60
2022/10/07 05:33:37;;;;;;;5.50;2.10;;;;;;;8.29;85.14;100641.05;1757279;81;20938;-60
2022/10/07 05:36:06;;;;;;;4.62;1.95;;;;;;;8.70;84.80;100643.97;1752920;80;21649;-60
2022/10/07 05:38:33;;;;;;;9.18;2.42;;;;;;;9.06;84.58;100642.63;1800427;78;21525;-61
2022/10/07 05:41:02;;;;;;;7.10;2.47;;;;;;;9.39;84.57;100641.33;1797909;78;21015;-61
2022/10/07 05:43:32;;;;;;;8.03;2.98;;;;;;;9.76;84.43;100645.49;1793784;79;21440;-62
2022/10/07 05:46:11;;;;;;;6.33;2.50;;;;;;;10.08;84.00;100638.88;1793967;78;21445;-63
2022/10/07 05:48:38;;;;;;;8.85;3.00;;;;;;;10.37;83.71;100643.66;1789961;78;20902;-62
2022/10/07 05:51:06;;;;;;;;;;;;;;;10.71;83.64;100646.48;1802190;78;21000;-63
2022/10/07 05:53:35;;;;;;;5.55;2.60;;;;;;;10.93;82.98;100643.55;1792738;78;20131;-62
2022/10/07 05:56:11;;;;;;;4.67;2.58;;;;;;;11.20;83.39;100653.95;1795947;78;21163;-62
2022/10/07 05:58:41;;;;;;;9.88;3.62;;;;;;;11.57;83.57;100657.89;1776482;79;38876;-63
2022/10/07 06:01:13;;;;;;;11.53;3.10;;;;;;;11.99;83.98;100657.23;1772663;79;20904;-63
2022/10/07 06:03:40;;;;;;;8.30;3.37;;;;;;;12.42;83.64;100652.92;1772149;78;20967;-63
2022/10/07 06:06:07;;;;;;;9.13;3.40;;;;;;;12.71;83.26;100659.59;1797440;79;20984;-64
2022/10/07 06:08:35;;;;;;;5.37;2.83;;;;;;;12.89;82.83;100658.00;1799496;78;21573;-64
2022/10/07 06:13:53;;;;;;;8.60;3.05;;;;;;;13.23;82.36;100661.80;1793492;78;21502;-64
2022/10/07 06:16:22;;;;;;;11.38;3.35;;;;;;;13.41;82.34;100664.95;1792306;79;20890;-64
2022/10/07 06:18:51;;;;;;;10.00;3.10;;;;;;;13.66;82.46;100660.31;1793356;79;20883;-62
2022/10/07 06:21:19;;;;;;;12.55;3.45;;;;;;;13.75;81.76;100663.44;1795190;79;21089;-62
2022/10/07 06:23:53;;;;;;;6.85;3.30;;;;;;;13.81;81.80;100669.75;1795621;78;20983;-62
2022/10/07 06:26:21;;;;;;;8.95;3.70;;;;;;;14.01;81.93;100661.80;1793750;78;21578;-62
2022/10/07 06:28:48;;;;;;;12.58;3.45;;;;;;;14.22;81.63;100664.33;1796151;79;20993;-62
2022/10/07 06:31:21;;;;;;;;;;;;;;;14.34;81.23;100659.83;1797525;79;20986;-62
2022/10/07 06:33:45;;;;;;;8.00;3.15;;;;;;;14.50;81.82;100660.77;1802410;78;21177;-62
2022/10/07 06:36:13;;;;;;;11.57;2.98;;;;;;;14.68;81.24;100662.16;1811230;78;20981;-61
2022/10/07 06:38:49;;;;;;;6.37;2.70;;;;;;;14.76;81.43;100660.01;1765248;79;20911;-62
2022/10/07 06:41:16;;;;;;;15.03;3.77;;;;;;;14.89;81.05;100659.76;1762641;81;20903;-62
2022/10/07 06:43:43;;;;;;;10.28;3.62;;;;;;;15.10;81.11;100656.99;1758658;80;20922;-62
2022/10/07 06:46:19;;;;;;;10.48;3.80;;;;;;;15.21;80.95;100662.08;1757423;80;21202;-62
2022/10/07 06:48:46;;;;;;;12.40;3.67;;;;;;;15.19;80.52;100665.72;1746489;81;20935;-61
2022/10/07 06:51:18;;;;;;;14.85;5.20;;;;;;;15.23;80.64;100665.93;1776420;80;20868;-62
2022/10/07 06:53:47;;;;;;;12.55;4.55;;;;;;;15.29;80.02;100661.69;1773098;79;20895;-62
2022/10/07 06:56:14;;;;;;;11.85;4.20;;;;;;;15.04;79.41;100663.85;1770862;78;21036;-62
2022/10/07 06:58:47;;;;;;;9.90;3.00;;;;;;;15.00;80.01;100660.06;1772218;80;21096;-62
2022/10/07 07:01:11;;;;;;;7.55;3.08;;;;;;;14.86;80.08;100669.12;1771725;79;20903;-62
2022/10/07 07:03:38;;;;;;;10.08;3.50;;;;;;;14.82;80.27;100664.95;1769465;79;20977;-61
2022/10/07 07:06:07;;;;;;;12.28;4.12;;;;;;;14.91;80.38;100672.38;1778030;80;20907;-64
2022/10/07 07:08:34;;;;;;;13.18;4.17;;;;;;;15.00;79.94;100668.42;1775522;80;20887;-63
2022/10/07 07:11:56;;;;;;;14.58;4.47;;;;;;;14.97;79.53;100669.43;1770287;80;21027;-62
2022/10/07 07:13:38;;;;;;;11.50;3.50;;;;;;;15.00;80.69;100663.16;1724764;78;20906;-63
2022/10/07 07:16:05;;;;;;;8.15;3.77;;;;;;;14.94;80.14;100661.70;1768268;80;20871;-63
2022/10/07 07:18:31;;;;;;;12.37;5.85;;;;;;;14.74;79.54;100672.37;1772481;80;28577;-62
2022/10/07 07:21:03;;;;;;;11.40;4.90;;;;;;;14.58;79.98;100672.26;1772255;80;21535;-61
2022/10/07 07:23:30;;;;;;;12.70;4.20;;;;;;;14.47;79.77;100664.86;1771502;80;21069;-60
2022/10/07 07:25:56;;;;;;;15.70;5.55;;;;;;;14.32;79.68;100669.08;1772432;80;21439;-61
2022/10/07 07:28:23;;;;;;;10.35;3.45;;;;;;;14.15;79.84;100670.81;1744166;80;21548;-62
2022/10/07 07:30:50;;;;;;;12.30;3.15;;;;;;;14.12;79.57;100670.97;1774518;79;20973;-62
2022/10/07 07:33:17;;;;;;;9.70;2.90;;;;;;;13.90;79.67;100662.76;1777601;80;21032;-63
2022/10/07 07:35:44;;;;;;;6.72;2.55;;;;;;;13.83;79.54;100662.64;1778911;79;21157;-63
2022/10/07 07:38:11;;;;;;;6.42;2.30;;;;;;;13.74;79.21;100658.66;1781595;79;20981;-63
2022/10/07 07:40:38;;;;;;;8.05;2.02;;;;;;;13.74;79.86;100657.81;1773930;80;20926;-63
2022/10/07 07:43:06;;;;;;;9.40;2.90;;;;;;;13.81;79.58;100647.44;1778181;79;20926;-64
2022/10/07 07:45:35;;;;;;;5.08;2.60;;;;;;;13.83;79.44;100651.67;1779560;79;21103;-63
2022/10/07 07:48:02;;;;;;;7.20;2.33;;;;;;;13.85;79.46;100645.89;1777479;80;21105;-63
2022/10/07 07:50:29;;;;;;;8.98;2.35;;;;;;;13.89;79.07;100649.22;1782649;80;20976;-64
2022/10/07 07:52:58;;;;;;;6.65;1.85;;;;;;;13.87;79.20;100653.25;1776506;80;20854;-62
2022/10/07 07:55:24;;;;;;;8.00;2.60;;;;;;;13.92;78.77;100651.73;1780668;80;20918;-62
2022/10/07 07:57:51;;;;;;;6.17;2.22;;;;;;;13.91;78.89;100643.91;1780692;80;20915;-61
2022/10/07 08:00:18;;;;;;;8.73;2.55;;;;;;;13.94;78.55;100647.23;1783136;80;21065;-64
2022/10/07 08:02:45;;;;;;;7.60;2.72;;;;;;;13.90;78.17;100643.06;1773328;80;20925;-63
2022/10/07 08:05:12;;;;;;;9.97;3.17;;;;;;;13.92;78.50;100644.30;1778203;80;20851;-63
2022/10/07 08:07:38;;;;;;;8.65;3.10;;;;;;;14.01;78.45;100640.80;1775799;80;20886;-64
2022/10/07 08:10:06;;;;;;;8.43;2.47;;;;;;;14.07;78.27;100632.63;1774874;80;21044;-63
2022/10/07 08:12:33;;;;;;;13.28;2.90;;;;;;;14.14;78.04;100625.76;1779468;80;20978;-63
2022/10/07 08:14:59;;;;;;;10.68;3.33;;;;;;;14.25;78.58;100632.66;1777569;80;20988;-64
2022/10/07 08:17:26;;;;;;;10.55;5.50;;;;;;;14.47;78.67;100630.70;1777049;79;21527;-64
2022/10/07 08:19:54;;;;;;;10.13;4.35;;;;;;;14.50;77.63;100635.80;1776414;80;20893;-65
2022/10/07 08:22:20;;;;;;;15.23;6.75;;;;;;;14.45;77.50;100639.14;1781763;79;20958;-62
2022/10/07 08:24:48;;;;;;;15.35;4.87;;;;;;;14.38;77.09;100640.34;1773310;80;21031;-62
2022/10/07 08:27:15;;;;;;;12.18;5.87;;;;;;;14.41;77.59;100635.41;1777000;80;21480;-63
2022/10/07 08:29:41;;;;;;;8.18;3.33;;;;;;;14.45;77.22;100632.58;1780667;80;20933;-63
2022/10/07 08:32:08;;;;;;;6.75;2.52;;;;;;;14.54;77.45;100630.83;1772961;79;20946;-62
2022/10/07 08:34:35;;;;;;;10.25;2.75;;;;;;;14.61;77.40;100629.20;1779427;79;20903;-61
2022/10/07 08:37:02;;;;;;;6.37;2.80;;;;;;;14.73;77.41;100631.22;1782551;80;21785;-64
2022/10/07 08:39:30;;;;;;;5.83;2.77;;;;;;;14.74;77.30;100627.68;1784601;80;20947;-64
2022/10/07 08:42:23;;;;;;;7.25;2.22;;;;;;;14.82;77.34;100625.52;1779609;79;20922;-64
2022/10/07 08:44:51;;;;;;;5.85;2.15;;;;;;;14.76;76.60;100623.20;1783521;80;21004;-64
2022/10/07 08:47:34;;;;;;;8.48;1.85;;;;;;;14.88;76.96;100623.05;1760492;81;21555;-64
2022/10/07 08:50:12;;;;;;;7.87;1.95;;;;;;;14.97;77.21;100620.78;1773974;80;21885;-63
2022/10/07 08:52:49;;;;;;;8.20;2.47;;;;;;;15.14;76.77;100617.75;1779366;80;20914;-63
2022/10/07 08:55:25;;;;;;;5.33;2.10;;;;;;;15.14;76.32;100615.12;1760601;81;20859;-63
2022/10/07 08:58:09;;;;;;;6.65;1.90;;;;;;;15.12;76.62;100610.39;1788183;80;20910;-64
2022/10/07 09:00:41;;;;;;;8.80;2.67;;;;;;;15.00;75.79;100614.05;1785224;80;20994;-64
2022/10/07 09:03:31;;;;;;;5.75;2.20;;;;;;;14.94;75.24;100614.36;1780127;80;20919;-63
2022/10/07 09:06:03;;;;;;;6.03;2.00;;;;;;;14.92;75.35;100605.70;1740338;80;20917;-64
2022/10/07 09:08:34;;;;;;;5.72;1.65;;;;;;;14.86;75.40;100603.38;1741675;79;21047;-64
2022/10/07 09:11:25;;;;;;;;;;;;;;;;;;;;;
2022/10/07 09:13:41;;;;;;;6.37;1.40;;;;;;;14.97;75.61;100601.05;1729389;80;22194;-64
2022/10/07 09:16:31;;;;;;;7.80;2.47;;;;;;;14.97;75.14;100598.42;1743904;79;21268;-65
2022/10/07 09:18:59;;;;;;;7.25;1.90;;;;;;;14.97;75.03;100611.57;1753956;80;20902;-63
2022/10/07 09:21:42;;;;;;;5.05;1.80;;;;;;;14.94;74.73;100594.64;1712400;82;20963;-65
2022/10/07 09:24:27;;;;;;;6.00;1.57;;;;;;;14.94;75.13;100598.59;1751905;80;21045;-63
2022/10/07 09:26:58;;;;;;;7.95;2.27;;;;;;;15.06;74.86;100601.51;1750583;80;21491;-63
2022/10/07 09:29:28;;;;;;;5.12;1.90;;;;;;;15.14;75.02;100589.66;1753517;80;21073;-63
2022/10/07 09:31:57;;;;;;;9.03;1.67;;;;;;;15.21;74.71;100592.37;1744467;80;21517;-63
2022/10/07 09:34:27;;;;;;;7.45;1.90;;;;;;;15.22;73.94;100578.73;1696809;81;21004;-63
2022/10/07 09:37:21;;;;;;;9.35;2.20;;;;;;;15.16;73.94;100579.07;1672675;84;21068;-62
2022/10/07 09:39:51;;;;;;;8.38;2.25;;;;;;;15.12;74.20;100580.14;1685199;83;21548;-63
2022/10/07 09:42:44;;;;;;;7.92;2.10;;;;;;;15.19;73.83;100576.27;1694011;82;21468;-63
2022/10/07 09:45:30;;;;;;;5.83;2.05;;;;;;;15.21;74.26;100571.79;1747677;81;20868;-63
2022/10/07 09:48:06;;;;;;;6.40;1.92;;;;;;;15.34;74.13;100567.55;1739886;82;20902;-62
2022/10/07 09:50:40;;;;;;;5.25;1.92;;;;;;;15.39;73.66;100570.79;1783578;80;20911;-63
2022/10/07 09:53:21;;;;;;;8.30;1.98;;;;;;;15.39;73.41;100562.89;1787210;78;20901;-63
2022/10/07 09:55:51;;;;;;;5.67;1.30;;;;;;;15.37;73.21;100564.75;1782344;78;21016;-63
2022/10/07 09:58:25;;;;;;;9.30;2.60;;;;;;;15.32;73.12;100561.55;1787319;78;21444;-63
2022/10/07 10:00:58;;;;;;;9.43;1.70;;;;;;;15.38;73.31;100560.36;1782712;80;20914;-62
2022/10/07 10:03:34;;;;;;;7.40;1.57;;;;;;;15.43;73.07;100559.63;1784032;79;20913;-63
2022/10/07 10:06:11;;;;;;;3.80;1.70;;;;;;;15.44;73.05;100555.61;1783409;78;21084;-63
2022/10/07 10:08:42;;;;;;;7.90;1.65;;;;;;;15.53;73.38;100556.05;1777620;80;21001;-63
2022/10/07 10:11:27;;;;;;;4.33;1.55;;;;;;;15.53;72.40;100545.52;1783878;80;20995;-63
2022/10/07 10:13:54;;;;;;;5.90;1.50;;;;;;;15.51;72.70;100543.42;1781648;78;20959;-63
2022/10/07 10:16:33;;;;;;;6.30;1.70;;;;;;;15.56;72.68;100540.08;1751157;80;21066;-63
2022/10/07 10:19:03;;;;;;;5.58;1.62;;;;;;;15.62;72.14;100532.69;1779200;80;21014;-63
2022/10/07 10:21:40;;;;;;;6.90;1.70;;;;;;;15.70;72.36;100545.46;1781465;78;20970;-63
2022/10/07 10:24:13;;;;;;;6.83;2.35;;;;;;;15.70;71.96;100532.30;1782713;79;20915;-63
2022/10/07 10:27:02;;;;;;;7.92;2.12;;;;;;;15.65;71.45;100529.88;1782400;80;20979;-63
2022/10/07 10:29:48;;;;;;;4.17;1.77;;;;;;;15.58;70.96;100530.33;1783462;79;20978;-61
2022/10/07 10:32:31;;;;;;;9.60;4.00;;;;;;;15.52;70.80;100522.77;1780670;80;20931;-63
2022/10/07 10:35:12;;;;;;;6.35;3.60;;;;;;;15.42;70.97;100520.62;1799112;78;21048;-62
2022/10/07 10:37:57;;;;;;;5.65;2.12;;;;;;;15.43;71.02;100521.47;1818635;78;20986;-62
2022/10/07 10:40:28;;;;;;;8.50;1.65;;;;;;;15.43;71.21;100517.08;1817669;78;20906;-62
2022/10/07 10:43:12;;;;;;;6.40;1.80;;;;;;;15.41;71.08;100514.98;1817516;78;21025;-62
2022/10/07 10:46:01;;;;;;;5.87;1.70;;;;;;;15.50;71.02;100516.73;1816548;78;22306;-62
2022/10/07 10:48:46;;;;;;;5.42;1.65;;;;;;;15.65;70.95;100510.61;1822492;78;21222;-63
2022/10/07 10:51:49;;;;;;;4.75;1.57;;;;;;;15.75;70.92;100506.56;1818324;78;20859;-63
2022/10/07 10:55:06;;;;;;;4.95;2.17;;;;;;;15.71;70.39;100499.79;1822531;78;20961;-62
2022/10/07 10:57:56;;;;;;;4.92;1.72;;;;;;;15.82;70.69;100502.67;1823849;77;20975;-64
2022/10/07 11:00:23;;;;;;;5.58;1.87;;;;;;;15.83;69.76;100499.09;1810054;78;21078;-64
2022/10/07 11:03:16;;;;;;;5.62;1.32;;;;;;;15.78;69.76;100497.65;1816180;78;21229;-64
2022/10/07 11:05:46;;;;;;;5.80;1.90;;;;;;;15.81;69.78;100493.05;1824132;77;20935;-65
2022/10/07 11:08:31;;;;;;;8.93;1.50;;;;;;;15.74;69.20;100485.14;1824253;78;20937;-64
2022/10/07 11:11:07;;;;;;;5.45;1.45;;;;;;;15.74;69.11;100486.45;1824052;78;21604;-63
2022/10/07 11:13:49;;;;;;;3.72;1.57;;;;;;;15.74;68.67;100478.55;1818811;78;20991;-64
2022/10/07 11:16:53;;;;;;;5.70;1.90;;;;;;;15.75;69.19;100477.61;1822592;77;21084;-62
2022/10/07 11:19:39;;;;;;;8.38;2.58;;;;;;;15.85;69.48;100478.79;1759695;80;21049;-62
2022/10/07 11:22:13;;;;;;;5.62;1.55;;;;;;;15.98;69.44;100468.86;1756563;81;21614;-63
2022/10/07 11:24:55;;;;;;;13.58;1.72;;;;;;;16.06;69.17;100468.79;1763493;79;20866;-62
2022/10/07 11:27:32;;;;;;;8.33;1.80;;;;;;;16.10;68.63;100462.42;1760176;80;20906;-63
2022/10/07 11:30:07;;;;;;;2.60;1.15;;;;;;;16.13;68.86;100456.09;1732505;81;21032;-64
2022/10/07 11:33:10;;;;;;;5.42;1.62;;;;;;;16.15;68.37;100447.64;1764830;79;20965;-63
2022/10/07 11:35:57;;;;;;;12.98;1.72;;;;;;;16.10;68.34;100448.38;1755765;80;20990;-65
2022/10/07 11:38:33;;;;;;;7.28;1.35;;;;;;;16.09;68.13;100442.27;1744908;81;20922;-65
2022/10/07 11:41:11;;;;;;;4.67;1.57;;;;;;;16.13;68.00;100432.38;1752768;81;21058;-65
2022/10/07 11:43:47;;;;;;;7.20;1.57;;;;;;;16.16;67.99;100422.13;1747538;81;21821;-65
2022/10/07 11:46:28;;;;;;;5.45;1.45;;;;;;;16.19;67.48;100426.78;1719669;81;20999;-65
2022/10/07 11:49:23;;;;;;;5.92;1.72;;;;;;;16.13;67.21;100421.84;1753858;81;21539;-62
2022/10/07 11:51:57;;;;;;;5.03;1.50;;;;;;;16.10;67.27;100416.77;1754382;81;20926;-63
2022/10/07 11:54:28;;;;;;;5.33;1.35;;;;;;;16.10;67.25;100406.22;1751572;81;20985;-63
2022/10/07 11:56:59;;;;;;;4.65;1.42;;;;;;;16.18;67.27;100397.40;1750770;81;21590;-63